Latest Coastal Weather Observations for Darwin Airport

IDD60701

Issued at 3:45 am CST Saturday 25 October 2014 (issued every 10 minutes, with the page automatically refreshed every 10 minutes)

About coastal observations | Map of coastal stations | Coastal observations for NT | Marine services | Other Formats
Station Details ID: 014015 Name: DARWIN AIRPORT Lat: -12.42 Lon: 130.89 Height: 30.4 m
Data from the previous 72 hours. | See also: Recent months at Darwin Airport
Date/Time
CST
Temp

°C
Wind Pressure Rain
since 9am
mm
Weather Cloud Vis
km
Sea
Height
m
Swell
Dir
 
Speed
knots
Gust
knots
hPa Trend Height
m
Period
s
Dir
25/03:30am 25.2 NE 5 7 1013.0 - 0.8 - - 10 - - - -
25/03:00am 25.5 ENE 7 8 1012.9 R 0.8 Smoke Mostly clear 20 - - - -
25/02:30am 25.4 NE 7 8 1013.4 - 0.8 - - 10 - - - -
25/02:00am 25.4 NE 7 9 1013.4 - 0.8 - Partly cloudy 10 - - - -
25/01:30am 25.7 NNE 7 9 1013.4 - 0.8 - - 10 - - - -
25/01:00am 26.2 NNE 7 9 1013.5 - 0.8 - Mostly clear 10 - - - -
25/12:30am 27.1 N 8 10 1013.6 - 0.6 Showers Partly cloudy 9 - - - -
25/12:00am 28.1 W 8 11 1013.2 R 0.0 Smoke Partly cloudy 20 - - - -
 
Date/Time
CST
Temp

°C
Wind Pressure Rain
since 9am
mm
Weather Cloud Vis
km
Sea
Height
m
Swell
Dir
 
Speed
knots
Gust
knots
hPa Trend Height
m
Period
s
Dir
24/11:30pm 28.1 W 9 13 1013.6 - 0.0 - Mostly clear 10 - - - -
24/11:00pm 28.5 WNW 12 16 1013.7 - 0.0 - Mostly clear 10 - - - -
24/10:30pm 28.6 WNW 12 15 1013.6 - 0.0 - Mostly clear 10 - - - -
24/10:00pm 28.7 WNW 12 15 1013.3 - 0.0 - Mostly clear 10 - - - -
24/09:30pm 28.7 WNW 13 17 1012.9 - 0.0 - Mostly clear 10 - - - -
24/09:00pm 28.7 WNW 15 19 1012.0 R 0.0 Fine Mostly clear 30 - - - -
24/08:30pm 29.3 NW 11 17 1011.8 - 0.0 - Mostly clear 10 - - - -
24/08:00pm 28.9 ENE 6 7 1011.4 - 0.0 - - 10 - - - -
24/07:30pm 29.4 NNE 6 7 1010.9 - 0.0 - - 10 - - - -
24/07:00pm 30.1 NNE 8 10 1010.5 - 0.0 - - 10 - - - -
24/06:30pm 30.4 NNE 9 12 1010.2 - 0.0 - - 10 - - - -
24/06:00pm 31.0 NNE 13 17 1009.5 S 0.0 Smoke Mostly clear 30 - - - -
24/05:30pm 31.5 NNE 16 21 1009.2 - 0.0 - - 10 - - - -
24/05:00pm 32.8 NNE 16 21 1009.2 - 0.0 - - 10 - - - -
24/04:30pm 32.8 NNE 17 22 1009.3 - 0.0 - - 10 - - - -
24/04:00pm 32.2 N 17 20 1009.5 - 0.0 - - 10 - - - -
24/03:30pm 32.5 NNE 17 19 1009.8 - 0.0 - - 10 - - - -
24/03:00pm 33.3 N 19 22 1009.7 R 0.0 Fine Mostly clear 30 - - - -
24/02:30pm 32.7 N 17 22 1010.3 - 0.0 - Partly cloudy 10 - - - -
24/02:00pm 31.9 N 16 20 1010.7 - 0.0 - Mostly clear 10 - - - -
24/01:30pm 32.4 NNW 17 21 1011.1 - 0.0 - Mostly clear 10 - - - -
24/01:00pm 32.4 NNW 16 21 1011.4 - 0.0 - - 10 - - - -
24/12:30pm 33.8 ENE 8 12 1011.9 - 0.0 - - 10 - - - -
24/12:00pm 33.7 ESE 8 15 1012.3 F 0.0 Fine Mostly clear 30 - - - -
24/11:30am 32.4 ESE 9 17 1013.2 - 0.0 - Partly cloudy 10 - - - -
24/11:00am 31.6 ENE 11 17 1013.8 - 0.0 - Mostly clear 10 - - - -
24/10:30am 31.6 ESE 13 16 1014.3 - 0.0 - Mostly clear 10 - - - -
24/10:00am 31.0 NNE 9 14 1014.5 - 0.0 - Mostly clear 10 - - - -
24/09:30am 30.0 ENE 10 13 1014.8 - 0.0 - Mostly clear 10 - - - -
24/09:00am 29.5 NE 6 8 1014.5 F 0.0 Fine Mostly clear 30 - - - -
24/08:30am 28.8 NE 5 8 1014.5 - 0.0 - Mostly clear 10 - - - -
24/08:00am 28.0 N 3 6 1014.3 - 0.0 - Mostly clear 10 - - - -
24/07:30am 27.0 ENE 1 4 1014.0 - 0.0 - Mostly clear 10 - - - -
24/07:00am 24.4 E 1 3 1013.8 - 0.0 - Mostly clear 10 - - - -
24/06:30am 23.5 CALM 0 0 1013.9 - 0.0 - Mostly clear 10 - - - -
24/06:00am 23.7 CALM 0 0 1013.3 S 0.0 Smoke Mostly clear 25 - - - -
24/05:30am 23.6 ENE 4 5 1013.1 - 0.0 - - 10 - - - -
24/05:00am 24.1 CALM 0 0 1012.9 - 0.0 - - 10 - - - -
24/04:30am 24.5 ENE 4 5 1013.0 - 0.0 - - 10 - - - -
24/04:00am 24.9 ENE 5 6 1012.9 - 0.0 - - 10 - - - -
24/03:30am 25.5 ESE 5 6 1012.8 - 0.0 - - 10 - - - -
24/03:00am 25.9 E 5 5 1012.6 F 0.0 Smoke Mostly clear 30 - - - -
24/02:30am 26.5 ENE 5 6 1013.1 - 0.0 - Partly cloudy 10 - - - -
24/02:00am 26.8 NNE 5 6 1013.5 - 0.0 - Mostly clear 10 - - - -
24/01:30am 27.3 N 5 6 1013.5 - 0.0 - Partly cloudy 10 - - - -
24/01:00am 27.9 N 6 10 1013.9 - 0.0 - Partly cloudy 10 - - - -
24/12:30am 28.1 NW 7 9 1013.9 - 0.0 - Partly cloudy 10 - - - -
24/12:00am 28.1 NW 9 12 1013.7 R 0.0 Smoke Partly cloudy 30 - - - -
 
Date/Time
CST
Temp

°C
Wind Pressure Rain
since 9am
mm
Weather Cloud Vis
km
Sea
Height
m
Swell
Dir
 
Speed
knots
Gust
knots
hPa Trend Height
m
Period
s
Dir
23/11:30pm 28.3 NW 10 12 1014.2 - 0.0 - Mostly clear 10 - - - -
23/11:00pm 28.5 NW 12 15 1014.0 - 0.0 - Mostly clear 10 - - - -
23/10:30pm 28.5 NW 14 18 1013.9 - 0.0 - Mostly clear 10 - - - -
23/10:00pm 28.5 NNW 15 19 1013.5 - 0.0 - Mostly clear 10 - - - -
23/09:30pm 28.7 NW 13 18 1012.9 - 0.0 - - 10 - - - -
23/09:00pm 28.3 NW 11 14 1012.0 R 0.0 Smoke Clear 30 - - - -
23/08:30pm 27.3 NE 4 5 1011.6 - 0.0 - - 10 - - - -
23/08:00pm 28.6 NNW 4 4 1011.3 - 0.0 - - 10 - - - -
23/07:30pm 30.1 NNW 5 6 1011.0 - 0.0 - - 10 - - - -
23/07:00pm 30.5 NW 6 8 1010.6 - 0.0 - - 10 - - - -
23/06:30pm 30.9 N 8 13 1010.3 - 0.0 - - 10 - - - -
23/06:00pm 31.5 NNE 12 17 1009.5 F 0.0 Fine Mostly clear 30 - - - -
23/05:30pm 31.9 NNE 13 18 1009.5 - 0.0 - - 10 - - - -
23/05:00pm 32.0 N 16 19 1009.0 - 0.0 - - 10 - - - -
23/04:30pm 32.5 NNE 17 22 1009.1 - 0.0 - - 10 - - - -
23/04:00pm 32.2 N 16 21 1009.5 - 0.0 - - 10 - - - -
23/03:30pm 33.1 N 17 25 1009.8 - 0.0 - - 10 - - - -
23/03:00pm 33.2 N 15 18 1009.9 R 0.0 Fine Mostly clear 30 - - - -
23/02:30pm 33.6 N 14 20 1010.4 - 0.0 - - 10 - - - -
23/02:00pm 33.2 NNW 16 19 1010.8 - 0.0 - Partly cloudy 10 - - - -
23/01:30pm 33.3 NNW 15 20 1011.2 - 0.0 - - 10 - - - -
23/01:00pm 32.9 NW 15 19 1011.8 - 0.0 - Partly cloudy 10 - - - -
23/12:30pm 34.0 N 11 17 1012.2 - 0.0 - - 10 - - - -
23/12:00pm 34.2 NE 7 13 1012.5 F 0.0 Fine Mostly clear 30 - - - -
23/11:30am 33.3 E 12 19 1013.3 - 0.0 - - 10 - - - -
23/11:00am 32.4 NE 8 15 1013.7 - 0.0 - Mostly clear 10 - - - -
23/10:30am 32.2 ENE 7 15 1014.2 - 0.0 - Mostly clear 10 - - - -
23/10:00am 31.0 NE 10 15 1014.6 - 0.0 - Mostly clear 10 - - - -
23/09:30am 29.9 NE 9 12 1014.8 - 0.0 - Mostly clear 10 - - - -
23/09:00am 29.0 ENE 10 14 1014.6 F 0.0 Fine Mostly clear 30 - - - -
23/08:30am 28.5 NE 7 11 1014.9 - 0.0 - Mostly clear 10 - - - -
23/08:00am 27.9 ENE 8 10 1014.7 - 0.0 - Mostly clear 10 - - - -
23/07:30am 26.9 E 6 8 1014.4 - 0.0 - Mostly clear 10 - - - -
23/07:00am 25.5 E 6 6 1014.0 - 0.0 - Mostly clear 10 - - - -
23/06:30am 24.2 ENE 5 6 1013.7 - 0.0 - Mostly clear 10 - - - -
23/06:00am 24.0 NE 5 6 1013.1 F 0.0 Smoke Mostly clear 25 - - - -
23/05:30am 24.6 NNE 4 6 1013.0 - 0.0 - Mostly clear 10 - - - -
23/05:00am 25.0 N 4 5 1012.6 - 0.0 - Mostly clear 10 - - - -
23/04:30am 25.6 N 4 5 1012.6 - 0.0 - Mostly clear 10 - - - -
23/04:00am 26.0 NNE 5 6 1012.7 - 0.0 - Mostly clear 10 - - - -
23/03:30am 26.2 NNE 5 6 1012.9 - 0.0 - Mostly clear 10 - - - -
23/03:00am 26.3 NNE 4 6 1012.5 F 0.0 Distant precip. Partly cloudy 25 - - - -
23/02:30am 26.5 N 6 7 1012.8 - 0.0 - Mostly clear 10 - - - -
23/02:00am 26.6 NE 5 7 1013.2 - 0.0 - Mostly clear 10 - - - -
23/01:30am 26.5 N 6 8 1013.1 - 0.0 - Mostly clear 10 - - - -
23/01:00am 26.5 NNW 5 8 1013.6 - 0.0 - Partly cloudy 10 - - - -
23/12:30am 26.5 N 9 11 1013.7 - 0.0 - Partly cloudy 10 - - - -
23/12:00am 28.0 N 9 11 1013.8 R 0.0 Showers Mostly cloudy 25 - - - -
 
Date/Time
CST
Temp

°C
Wind Pressure Rain
since 9am
mm
Weather Cloud Vis
km
Sea
Height
m
Swell
Dir
 
Speed
knots
Gust
knots
hPa Trend Height
m
Period
s
Dir
22/11:30pm 28.4 WNW 9 11 1014.0 - 0.0 - Mostly cloudy 10 - - - -
22/11:00pm 28.5 WNW 12 15 1014.0 - 0.0 - Partly cloudy 10 - - - -
22/10:30pm 28.6 NW 12 15 1014.0 - 0.0 - Partly cloudy 10 - - - -
22/10:00pm 28.7 NW 14 18 1013.5 - 0.0 - Partly cloudy 10 - - - -
22/09:30pm 28.8 NW 14 17 1013.1 - 0.0 - - 10 - - - -
22/09:00pm 29.7 WNW 12 16 1012.2 R 0.0 Smoke Clear 20 - - - -
22/08:30pm 28.7 NNE 6 8 1012.1 - 0.0 - - 10 - - - -
22/08:00pm 29.0 NNE 5 6 1011.7 - 0.0 - - 10 - - - -
22/07:30pm 29.6 N 5 6 1011.4 - 0.0 - - 10 - - - -
22/07:00pm 30.2 N 6 7 1011.1 - 0.0 - - 10 - - - -
22/06:30pm 30.7 N 8 9 1010.8 - 0.0 - - 10 - - - -
22/06:00pm 30.9 N 9 12 1010.1 F 0.0 Smoke Mostly clear 10 - - - -
22/05:30pm 31.7 N 11 17 1010.1 - 0.0 - - 10 - - - -
22/05:00pm 32.2 N 11 14 1009.9 - 0.0 - - 10 - - - -
22/04:30pm 32.3 N 13 15 1009.9 - 0.0 - - 10 - - - -
22/04:00pm 32.0 N 14 16 1009.9 - 0.0 - - 10 - - - -
22/03:30pm 32.4 N 13 16 1010.3 - 0.0 - - 10 - - - -
22/03:00pm 32.3 N 14 18 1010.4 F 0.0 Fine Mostly clear 30 - - - -
22/02:30pm 31.4 N 13 18 1011.1 - 0.0 - - 10 - - - -
22/02:00pm 31.6 N 12 17 1011.6 - 0.0 - - 10 - - - -
22/01:30pm 31.8 NNW 12 16 1012.2 - 0.0 - - 10 - - - -
22/01:00pm 31.7 N 12 15 1012.9 - 0.0 - - 10 - - - -
22/12:30pm 31.5 NW 11 15 1013.5 - 0.0 - Mostly clear 10 - - - -
22/12:00pm 30.7 NNW 10 14 1013.6 S 0.0 Smoke Mostly clear 25 - - - -
22/11:30am 30.9 NNW 12 15 1014.4 - 0.0 - Partly cloudy 10 - - - -
22/11:00am 31.6 ESE 12 15 1014.8 - 0.0 - Mostly clear 10 - - - -
22/10:30am 30.8 E 8 10 1015.2 - 0.0 - Mostly clear 10 - - - -
22/10:00am 30.0 NE 4 6 1015.2 - 0.0 - Mostly clear 10 - - - -
22/09:30am 30.4 NW 8 10 1015.1 - 0.0 - Mostly clear 10 - - - -
22/09:00am 29.2 NNW 4 9 1014.8 F 0.0 Smoke Mostly clear 25 - - - -
22/08:30am 28.4 N 6 8 1015.1 - 0.0 - Mostly clear 10 - - - -
22/08:00am 27.9 N 6 8 1014.6 - 0.0 - Mostly clear 10 - - - -
22/07:30am 26.6 N 5 6 1014.4 - 0.0 - Mostly clear 10 - - - -
22/07:00am 24.7 N 4 5 1014.0 - 0.0 - Mostly clear 10 - - - -
22/06:30am 24.0 N 3 6 1014.0 - 0.0 - Mostly clear 10 - - - -
22/06:00am 24.5 N 6 6 1013.3 F 0.0 Smoke Clear 20 - - - -
22/05:30am 24.7 NNE 7 8 1013.7 - 0.0 - - 10 - - - -
22/05:00am 24.9 NNE 6 7 1013.5 - 0.0 - - 10 - - - -
22/04:30am 24.9 NE 8 9 1013.6 - 0.0 - Mostly clear 10 - - - -
22/04:00am 24.9 NE 7 8 1013.6 - 0.0 - Mostly clear 10 - - - -

Other Formats:

Comma delimited format used in spreadsheet applications
http://www.bom.gov.au/fwo/IDD60701/IDD60701.94120.axf

JavaScript Object Notation format (JSON) in row-major order
http://www.bom.gov.au/fwo/IDD60701/IDD60701.94120.json